createdAt,value
2022-09-15T00:01:12.099Z,2.67
2022-09-15T00:03:40.239Z,3.30
2022-09-15T00:06:08.435Z,4.10
2022-09-15T00:08:35.783Z,3.83
2022-09-15T00:11:18.480Z,4.27
2022-09-15T00:13:46.263Z,3.67
2022-09-15T00:16:15.330Z,2.80
2022-09-15T00:18:44.517Z,3.80
2022-09-15T00:21:17.845Z,4.13
2022-09-15T00:23:46.024Z,4.03
2022-09-15T00:26:16.794Z,3.77
2022-09-15T00:28:44.663Z,4.67
2022-09-15T00:31:16.079Z,3.80
2022-09-15T00:33:46.927Z,3.50
2022-09-15T00:36:14.889Z,4.10
2022-09-15T00:38:42.791Z,3.70
2022-09-15T00:41:13.315Z,3.83
2022-09-15T00:43:54.385Z,4.30
2022-09-15T00:46:31.302Z,3.90
2022-09-15T00:49:07.664Z,3.63
2022-09-15T00:51:46.897Z,4.40
2022-09-15T00:54:20.372Z,4.37
2022-09-15T00:56:52.604Z,3.93
2022-09-15T00:59:24.251Z,5.00
2022-09-15T01:02:01.469Z,3.70
2022-09-15T01:04:28.593Z,3.93
2022-09-15T01:07:02.973Z,4.80
2022-09-15T01:09:54.594Z,4.33
2022-09-15T01:12:23.189Z,4.00
2022-09-15T01:14:50.458Z,3.87
2022-09-15T01:18:16.985Z,4.33
2022-09-15T01:21:14.488Z,4.60
2022-09-15T01:24:24.342Z,3.83
2022-09-15T01:27:41.467Z,4.87
2022-09-15T01:30:34.322Z,4.70
2022-09-15T01:33:32.382Z,4.20
2022-09-15T01:36:39.956Z,4.07
2022-09-15T01:39:18.561Z,3.77
2022-09-15T01:41:57.394Z,3.87
2022-09-15T01:44:36.561Z,3.73
2022-09-15T01:47:09.880Z,4.60
2022-09-15T01:50:23.380Z,3.87
2022-09-15T01:52:55.229Z,4.07
2022-09-15T01:55:31.782Z,3.70
2022-09-15T01:57:59.808Z,3.50
2022-09-15T02:00:26.863Z,4.20
2022-09-15T02:03:01.763Z,4.13
2022-09-15T02:05:47.948Z,4.13
2022-09-15T02:08:31.165Z,4.83
2022-09-15T02:11:04.766Z,4.10
2022-09-15T02:14:17.382Z,3.93
2022-09-15T02:16:50.494Z,4.40
2022-09-15T02:19:41.190Z,4.07
2022-09-15T02:22:24.701Z,3.70
2022-09-15T02:25:06.251Z,3.40
2022-09-15T02:27:39.374Z,4.40
2022-09-15T02:30:11.878Z,3.70
2022-09-15T02:32:51.946Z,4.20
2022-09-15T02:35:19.316Z,4.10
2022-09-15T02:37:47.283Z,4.37
2022-09-15T02:40:14.649Z,5.00
2022-09-15T02:42:55.892Z,4.20
2022-09-15T02:45:24.795Z,4.00
2022-09-15T02:47:51.874Z,4.20
2022-09-15T02:50:20.558Z,4.67
2022-09-15T02:52:47.770Z,5.10
2022-09-15T02:55:15.912Z,4.30
2022-09-15T02:57:42.948Z,5.27
2022-09-15T03:00:14.531Z,5.03
2022-09-15T03:02:45.574Z,3.57
2022-09-15T03:05:15.548Z,5.43
2022-09-15T03:07:43.081Z,4.60
2022-09-15T03:10:12.541Z,4.00
2022-09-15T03:12:45.969Z,4.63
2022-09-15T03:15:16.397Z,3.90
2022-09-15T03:17:46.315Z,5.90
2022-09-15T03:20:18.079Z,5.10
2022-09-15T03:22:45.348Z,5.00
2022-09-15T03:25:13.514Z,4.57
2022-09-15T03:27:40.851Z,4.20
2022-09-15T03:30:09.599Z,4.90
2022-09-15T03:32:37.236Z,5.40
2022-09-15T03:35:05.895Z,5.33
2022-09-15T03:37:34.469Z,4.90
2022-09-15T03:40:01.884Z,5.10
2022-09-15T03:42:29.262Z,5.27
2022-09-15T03:44:56.381Z,5.40
2022-09-15T03:47:23.403Z,5.07
2022-09-15T03:49:50.859Z,4.80
2022-09-15T03:52:17.890Z,6.73
2022-09-15T03:54:44.984Z,4.20
2022-09-15T03:57:12.026Z,5.67
2022-09-15T03:59:39.057Z,6.00
2022-09-15T04:02:06.237Z,5.97
2022-09-15T04:04:33.307Z,11.83
2022-09-15T04:07:00.446Z,5.20
2022-09-15T04:09:28.196Z,5.93
2022-09-15T04:11:55.202Z,5.10
2022-09-15T04:14:22.340Z,6.40
2022-09-15T04:16:49.344Z,5.27
2022-09-15T04:19:16.372Z,5.80
2022-09-15T04:21:43.511Z,5.80
2022-09-15T04:24:10.555Z,4.83
2022-09-15T04:26:37.648Z,4.77
2022-09-15T04:29:13.381Z,7.60
2022-09-15T04:31:40.488Z,5.23
2022-09-15T04:34:07.786Z,4.53
2022-09-15T04:36:34.832Z,5.43
2022-09-15T04:39:02.200Z,5.40
2022-09-15T04:41:29.489Z,5.73
2022-09-15T04:43:56.672Z,5.70
2022-09-15T04:46:23.935Z,6.50
2022-09-15T04:48:51.933Z,5.20
2022-09-15T04:51:22.068Z,5.73
2022-09-15T04:53:50.325Z,6.33
2022-09-15T04:56:24.238Z,5.87
2022-09-15T04:59:03.239Z,6.10
2022-09-15T05:01:34.419Z,6.00
2022-09-15T05:04:06.469Z,6.03
2022-09-15T05:06:35.081Z,5.60
2022-09-15T05:09:09.095Z,6.13
2022-09-15T05:11:37.763Z,5.53
2022-09-15T05:14:04.915Z,5.87
2022-09-15T05:16:32.209Z,6.73
2022-09-15T05:19:03.039Z,6.07
2022-09-15T05:21:30.611Z,5.73
2022-09-15T05:23:58.119Z,5.73
2022-09-15T05:26:28.333Z,6.73
2022-09-15T05:28:56.889Z,4.77
2022-09-15T05:31:33.894Z,5.60
2022-09-15T05:34:04.442Z,3.70
2022-09-15T05:36:32.202Z,3.80
2022-09-15T05:39:00.268Z,3.93
2022-09-15T05:41:28.605Z,4.80
2022-09-15T05:43:57.701Z,4.00
2022-09-15T05:46:26.335Z,3.83
2022-09-15T05:48:55.949Z,3.90
2022-09-15T05:51:23.650Z,4.27
2022-09-15T05:53:51.067Z,4.37
2022-09-15T05:56:19.144Z,3.60
2022-09-15T05:58:48.462Z,3.43
2022-09-15T06:01:24.696Z,3.70
2022-09-15T06:03:53.115Z,3.00
2022-09-15T06:06:22.113Z,3.07
2022-09-15T06:08:58.633Z,3.30
2022-09-15T06:11:31.460Z,2.43
2022-09-15T06:14:03.455Z,2.80
2022-09-15T06:16:34.551Z,2.40
2022-09-15T06:19:02.359Z,2.77
2022-09-15T06:21:31.697Z,2.53
2022-09-15T06:24:03.312Z,2.80
2022-09-15T06:26:30.613Z,2.33
2022-09-15T06:29:00.863Z,2.80
2022-09-15T06:31:31.604Z,6.80
2022-09-15T06:33:59.597Z,2.70
2022-09-15T06:36:29.614Z,3.53
2022-09-15T06:38:57.146Z,2.20
2022-09-15T06:41:24.576Z,2.47
2022-09-15T06:43:52.291Z,2.43
2022-09-15T06:46:23.557Z,2.33
2022-09-15T06:48:51.929Z,2.90
2022-09-15T06:51:22.368Z,2.80
2022-09-15T06:53:50.894Z,2.80
2022-09-15T06:56:22.282Z,2.10
2022-09-15T06:58:49.672Z,2.40
2022-09-15T07:01:31.841Z,6.80
2022-09-15T07:04:01.246Z,3.73
2022-09-15T07:06:30.981Z,4.43
2022-09-15T07:08:59.263Z,5.83
2022-09-15T07:11:26.365Z,4.80
2022-09-15T07:13:53.501Z,2.47
2022-09-15T07:16:22.009Z,3.00
2022-09-15T07:18:49.939Z,2.50
2022-09-15T07:21:20.175Z,2.47
2022-09-15T07:23:48.721Z,2.40
2022-09-15T07:26:25.360Z,3.50
2022-09-15T07:29:03.260Z,1.90
2022-09-15T07:31:33.589Z,2.20
2022-09-15T07:34:01.569Z,2.90
2022-09-15T07:36:30.158Z,2.20
2022-09-15T07:38:57.754Z,2.10
2022-09-15T07:41:28.895Z,2.80
2022-09-15T07:43:59.102Z,2.40
2022-09-15T07:46:29.529Z,2.53
2022-09-15T07:48:56.585Z,2.00
2022-09-15T07:51:25.027Z,2.20
2022-09-15T07:53:52.881Z,2.30
2022-09-15T07:56:21.056Z,2.63
2022-09-15T07:58:49.185Z,2.30
2022-09-15T08:01:18.605Z,2.50
2022-09-15T08:03:52.048Z,2.67
2022-09-15T08:06:25.909Z,3.37
2022-09-15T08:08:57.716Z,2.30
2022-09-15T08:11:27.634Z,2.13
2022-09-15T08:13:54.882Z,10.90
2022-09-15T08:16:24.631Z,9.37
2022-09-15T08:18:55.394Z,1.87
2022-09-15T08:21:23.718Z,2.67
2022-09-15T08:24:01.462Z,2.10
2022-09-15T08:26:29.990Z,2.20
2022-09-15T08:28:58.034Z,2.10
2022-09-15T08:31:25.593Z,2.30
2022-09-15T08:33:55.226Z,1.93
2022-09-15T08:36:23.158Z,2.17
2022-09-15T08:38:50.269Z,2.00
2022-09-15T08:41:30.159Z,1.90
2022-09-15T08:44:08.451Z,2.27
2022-09-15T08:46:51.029Z,2.40
2022-09-15T08:49:50.932Z,1.70
2022-09-15T08:52:49.360Z,2.07
2022-09-15T08:55:43.318Z,1.63
2022-09-15T08:58:25.589Z,1.93
2022-09-15T09:01:19.627Z,2.43
2022-09-15T09:04:04.441Z,2.10
2022-09-15T09:07:02.353Z,1.87
2022-09-15T09:09:47.329Z,1.80
2022-09-15T09:13:12.221Z,1.50
2022-09-15T09:16:00.847Z,1.47
2022-09-15T09:18:39.231Z,2.87
2022-09-15T09:21:12.368Z,1.47
2022-09-15T09:24:01.857Z,1.77
2022-09-15T09:26:32.356Z,2.10
2022-09-15T09:29:03.025Z,1.70
2022-09-15T09:31:30.473Z,1.93
2022-09-15T09:34:38.640Z,1.70
2022-09-15T09:37:15.568Z,1.70
2022-09-15T09:39:42.855Z,1.40
2022-09-15T09:42:18.550Z,1.60
2022-09-15T09:44:47.261Z,1.80
2022-09-15T09:47:15.530Z,1.90
2022-09-15T09:49:50.011Z,1.60
2022-09-15T09:52:35.886Z,1.67
2022-09-15T09:55:23.443Z,1.57
2022-09-15T09:57:51.295Z,1.70
2022-09-15T10:00:38.555Z,6.97
2022-09-15T10:03:27.003Z,11.40
2022-09-15T10:06:23.308Z,2.07
2022-09-15T10:08:58.412Z,1.67
2022-09-15T10:11:48.562Z,1.40
2022-09-15T10:14:39.921Z,1.20
2022-09-15T10:17:10.446Z,1.13
2022-09-15T10:19:57.175Z,1.00
2022-09-15T10:22:35.938Z,1.13
2022-09-15T10:25:39.548Z,1.23
2022-09-15T10:28:26.201Z,1.30
2022-09-15T10:31:07.093Z,1.00
2022-09-15T10:33:43.360Z,2.03
2022-09-15T10:36:23.683Z,1.00
2022-09-15T10:39:10.508Z,1.20
2022-09-15T10:42:14.384Z,1.33
2022-09-15T10:44:57.535Z,1.20
2022-09-15T10:47:39.983Z,0.90
2022-09-15T10:50:30.808Z,2.13
2022-09-15T10:53:23.520Z,2.30
2022-09-15T10:56:08.909Z,1.00
2022-09-15T10:59:12.889Z,4.63
2022-09-15T11:01:54.619Z,10.00
2022-09-15T11:05:23.909Z,2.17
2022-09-15T11:08:32.023Z,1.27
2022-09-15T11:11:32.250Z,0.80
2022-09-15T11:14:13.241Z,1.23
2022-09-15T11:16:59.141Z,0.80
2022-09-15T11:19:46.642Z,1.73
2022-09-15T11:22:29.144Z,1.10
2022-09-15T11:25:14.689Z,1.20
2022-09-15T11:28:11.178Z,1.57
2022-09-15T11:31:19.542Z,1.30
2022-09-15T11:34:11.723Z,1.37
2022-09-15T11:37:00.035Z,1.00
2022-09-15T11:39:36.767Z,1.43
2022-09-15T11:42:18.692Z,1.40
2022-09-15T11:44:48.151Z,0.80
2022-09-15T11:47:36.952Z,1.23
2022-09-15T11:50:21.607Z,1.13
2022-09-15T11:53:27.756Z,1.03
2022-09-15T11:56:09.623Z,1.97
2022-09-15T11:59:09.952Z,1.30
2022-09-15T12:01:49.879Z,1.00
2022-09-15T12:04:27.181Z,2.40
2022-09-15T12:07:14.599Z,1.20
2022-09-15T12:09:42.042Z,1.27
2022-09-15T12:12:17.359Z,1.63
2022-09-15T12:14:47.245Z,1.37
2022-09-15T12:17:56.341Z,1.83
2022-09-15T12:20:37.945Z,1.37
2022-09-15T12:23:32.878Z,2.00
2022-09-15T12:26:18.338Z,1.23
2022-09-15T12:28:54.293Z,1.77
2022-09-15T12:31:31.199Z,2.50
2022-09-15T12:33:59.768Z,1.27
2022-09-15T12:36:40.359Z,1.87
2022-09-15T12:39:29.803Z,2.43
2022-09-15T12:42:10.777Z,1.27
2022-09-15T12:45:02.071Z,1.30
2022-09-15T12:47:35.108Z,1.33
2022-09-15T12:50:21.235Z,1.30
2022-09-15T12:53:02.775Z,1.13
2022-09-15T12:55:36.886Z,1.70
2022-09-15T12:58:14.598Z,1.57
2022-09-15T13:01:07.254Z,2.10
2022-09-15T13:06:28.941Z,1.30
2022-09-15T13:09:02.068Z,1.10
2022-09-15T13:11:38.610Z,1.53
2022-09-15T13:14:08.970Z,2.40
2022-09-15T13:16:45.742Z,3.50
2022-09-15T13:19:36.033Z,1.83
2022-09-15T13:22:11.967Z,1.10
2022-09-15T13:25:02.040Z,1.13
2022-09-15T13:27:39.112Z,1.60
2022-09-15T13:30:13.853Z,1.47
2022-09-15T13:33:17.858Z,1.10
2022-09-15T13:36:05.909Z,1.30
2022-09-15T13:39:23.746Z,1.20
2022-09-15T13:42:25.085Z,8.90
2022-09-15T13:45:17.258Z,3.50
2022-09-15T13:47:52.414Z,1.00
2022-09-15T13:50:57.206Z,0.93
2022-09-15T13:53:26.818Z,1.27
2022-09-15T13:55:57.345Z,1.03
2022-09-15T14:01:14.406Z,1.50
2022-09-15T14:03:50.125Z,0.90
2022-09-15T14:06:36.222Z,1.13
2022-09-15T14:09:44.644Z,1.10
2022-09-15T14:12:15.113Z,1.70
2022-09-15T14:14:51.567Z,1.70
2022-09-15T14:17:20.941Z,1.10
2022-09-15T14:19:50.900Z,1.30
2022-09-15T14:22:17.910Z,1.70
2022-09-15T14:24:45.662Z,2.30
2022-09-15T14:27:21.541Z,0.87
2022-09-15T14:29:57.804Z,0.97
2022-09-15T14:32:27.967Z,0.90
2022-09-15T14:35:00.119Z,0.97
2022-09-15T14:37:31.643Z,1.40
2022-09-15T14:40:02.152Z,1.37
2022-09-15T14:42:35.844Z,1.67
2022-09-15T14:48:07.957Z,1.10
2022-09-15T14:50:36.235Z,2.00
2022-09-15T14:53:16.293Z,0.80
2022-09-15T14:56:20.630Z,9.40
2022-09-15T14:58:56.637Z,3.20
2022-09-15T15:01:37.272Z,2.30
2022-09-15T15:04:24.040Z,1.60
2022-09-15T15:06:56.987Z,1.20
2022-09-15T15:09:34.226Z,0.70
2022-09-15T15:12:19.281Z,0.60
2022-09-15T15:14:46.646Z,0.70
2022-09-15T15:17:34.677Z,0.77
2022-09-15T15:20:10.096Z,0.80
2022-09-15T15:22:38.732Z,0.70
2022-09-15T15:25:32.420Z,1.33
2022-09-15T15:28:01.108Z,1.07
2022-09-15T15:30:35.799Z,0.97
2022-09-15T15:33:27.673Z,1.03
2022-09-15T15:36:09.507Z,1.03
2022-09-15T15:38:46.985Z,0.97
2022-09-15T15:41:25.025Z,0.80
2022-09-15T15:44:07.812Z,1.10
2022-09-15T15:46:57.596Z,1.27
2022-09-15T15:49:32.527Z,1.30
2022-09-15T15:52:01.780Z,1.20
2022-09-15T15:54:29.584Z,4.27
2022-09-15T15:57:23.408Z,3.10
2022-09-15T15:59:57.930Z,5.17
2022-09-15T16:02:27.293Z,1.37
2022-09-15T16:04:54.977Z,1.40
2022-09-15T16:07:24.479Z,1.23
2022-09-15T16:09:51.652Z,1.23
2022-09-15T16:12:18.720Z,1.90
2022-09-15T16:14:46.324Z,1.37
2022-09-15T16:17:13.420Z,1.03
2022-09-15T16:19:40.449Z,0.90
2022-09-15T16:22:07.484Z,1.30
2022-09-15T16:24:34.475Z,1.10
2022-09-15T16:27:01.489Z,1.00
2022-09-15T16:29:36.157Z,1.20
2022-09-15T16:32:05.213Z,1.07
2022-09-15T16:34:32.317Z,1.60
2022-09-15T16:36:59.407Z,1.40
2022-09-15T16:39:26.462Z,1.40
2022-09-15T16:41:53.576Z,2.40
2022-09-15T16:44:20.594Z,1.30
2022-09-15T16:46:47.667Z,4.90
2022-09-15T16:49:14.719Z,7.30
2022-09-15T16:51:41.709Z,2.77
2022-09-15T16:54:20.468Z,1.97
2022-09-15T16:56:47.475Z,1.33
2022-09-15T16:59:14.490Z,6.50
2022-09-15T17:01:41.552Z,6.43
2022-09-15T17:04:16.777Z,2.90
2022-09-15T17:06:44.012Z,4.00
2022-09-15T17:09:11.136Z,2.90
2022-09-15T17:11:38.232Z,4.20
2022-09-15T17:14:05.553Z,18.07
2022-09-15T17:16:32.552Z,11.83
2022-09-15T17:18:59.509Z,2.10
2022-09-15T17:21:27.372Z,2.23
2022-09-15T17:23:54.408Z,1.60
2022-09-15T17:26:30.470Z,1.50
2022-09-15T17:28:59.103Z,1.23
2022-09-15T17:31:26.431Z,1.60
2022-09-15T17:33:53.649Z,1.70
2022-09-15T17:36:20.755Z,1.20
2022-09-15T17:38:50.508Z,1.30
2022-09-15T17:41:20.635Z,4.60
2022-09-15T17:43:47.879Z,3.63
2022-09-15T17:46:15.004Z,1.30
2022-09-15T17:48:42.140Z,1.07
2022-09-15T17:51:16.172Z,1.10
2022-09-15T17:53:45.155Z,1.50
2022-09-15T17:56:12.340Z,1.27
2022-09-15T17:58:39.950Z,1.80
2022-09-15T18:01:07.079Z,0.80
2022-09-15T18:03:37.023Z,1.63
2022-09-15T18:06:08.487Z,0.80
2022-09-15T18:08:36.264Z,1.70
2022-09-15T18:11:05.706Z,0.87
2022-09-15T18:13:33.521Z,0.80
2022-09-15T18:16:07.003Z,1.07
2022-09-15T18:18:34.394Z,1.30
2022-09-15T18:21:01.874Z,2.30
2022-09-15T18:23:29.686Z,0.90
2022-09-15T18:25:57.175Z,6.33
2022-09-15T18:28:24.285Z,1.40
2022-09-15T18:30:51.866Z,1.40
2022-09-15T18:33:24.932Z,1.40
2022-09-15T18:35:55.777Z,1.13
2022-09-15T18:38:23.628Z,2.10
2022-09-15T18:40:55.341Z,6.57
2022-09-15T18:43:26.404Z,1.73
2022-09-15T18:46:00.723Z,1.33
2022-09-15T18:48:28.336Z,1.37
2022-09-15T18:50:55.701Z,3.90
2022-09-15T18:53:22.974Z,2.40
2022-09-15T18:55:50.235Z,1.80
2022-09-15T18:58:19.193Z,2.47
2022-09-15T19:00:46.472Z,2.57
2022-09-15T19:03:14.310Z,2.00
2022-09-15T19:05:41.811Z,1.47
2022-09-15T19:08:09.326Z,4.67
2022-09-15T19:10:38.404Z,1.20
2022-09-15T19:13:05.664Z,1.83
2022-09-15T19:15:34.627Z,1.50
2022-09-15T19:18:02.156Z,1.10
2022-09-15T19:20:30.062Z,1.00
2022-09-15T19:22:58.488Z,1.30
2022-09-15T19:25:25.528Z,1.43
2022-09-15T19:27:52.551Z,1.10
2022-09-15T19:30:19.740Z,1.77
2022-09-15T19:32:46.780Z,2.90
2022-09-15T19:35:14.204Z,1.80
2022-09-15T19:37:42.569Z,1.80
2022-09-15T19:40:13.898Z,1.57
2022-09-15T19:42:43.837Z,1.23
2022-09-15T19:45:12.898Z,3.63
2022-09-15T19:47:40.481Z,1.53
2022-09-15T19:50:09.537Z,2.30
2022-09-15T19:52:36.659Z,1.00
2022-09-15T19:55:07.438Z,1.50
2022-09-15T19:57:34.568Z,1.67
2022-09-15T20:00:01.783Z,2.77
2022-09-15T20:02:28.986Z,1.63
2022-09-15T20:04:56.252Z,1.20
2022-09-15T20:07:23.430Z,1.47
2022-09-15T20:09:53.434Z,1.10
2022-09-15T20:14:52.686Z,3.17
2022-09-15T20:17:19.764Z,1.43
2022-09-15T20:19:46.783Z,1.80
2022-09-15T20:22:14.044Z,1.27
2022-09-15T20:24:41.040Z,1.30
2022-09-15T20:27:08.917Z,1.37
2022-09-15T20:29:35.950Z,1.83
2022-09-15T20:32:03.039Z,1.07
2022-09-15T20:34:30.049Z,1.40
2022-09-15T20:36:57.124Z,1.10
2022-09-15T20:39:24.895Z,1.67
2022-09-15T20:41:51.984Z,0.90
2022-09-15T20:44:18.971Z,1.10
2022-09-15T20:46:45.934Z,2.00
2022-09-15T20:49:13.053Z,1.73
2022-09-15T20:51:40.212Z,1.27
2022-09-15T20:54:07.257Z,1.60
2022-09-15T20:56:35.925Z,1.63
2022-09-15T20:59:04.844Z,2.57
2022-09-15T21:01:38.046Z,1.60
2022-09-15T21:04:07.991Z,1.80
2022-09-15T21:06:36.003Z,1.67
2022-09-15T21:09:04.235Z,2.00
2022-09-15T21:11:31.561Z,1.90
2022-09-15T21:13:58.939Z,1.70
2022-09-15T21:16:28.494Z,1.70
2022-09-15T21:18:58.160Z,1.47
2022-09-15T21:21:31.637Z,1.63
2022-09-15T21:24:04.950Z,1.90
2022-09-15T21:26:57.311Z,1.40
2022-09-15T21:29:25.056Z,1.53
2022-09-15T21:31:52.790Z,1.30
2022-09-15T21:34:20.221Z,1.27
2022-09-15T21:36:47.382Z,1.60
2022-09-15T21:39:14.417Z,1.30
2022-09-15T21:41:41.591Z,1.70
2022-09-15T21:44:09.374Z,1.50
2022-09-15T21:46:36.457Z,1.30
2022-09-15T21:49:03.520Z,1.70
2022-09-15T21:51:31.003Z,1.43
2022-09-15T21:53:59.905Z,1.40
2022-09-15T21:56:29.127Z,1.50
2022-09-15T21:58:56.485Z,1.43
2022-09-15T22:01:32.532Z,2.33
2022-09-15T22:04:03.330Z,1.50
2022-09-15T22:06:34.618Z,1.20
2022-09-15T22:09:07.938Z,1.20
2022-09-15T22:11:35.911Z,1.47
2022-09-15T22:14:08.034Z,1.67
2022-09-15T22:16:37.996Z,1.47
2022-09-15T22:19:06.884Z,1.50
2022-09-15T22:21:36.912Z,1.40
2022-09-15T22:24:07.207Z,1.40
2022-09-15T22:26:37.580Z,1.20
2022-09-15T22:29:06.744Z,1.00
2022-09-15T22:31:34.466Z,1.07
2022-09-15T22:34:01.645Z,1.10
2022-09-15T22:36:30.678Z,1.33
2022-09-15T22:39:06.127Z,1.10
2022-09-15T22:41:36.574Z,0.90
2022-09-15T22:44:05.662Z,1.43
2022-09-15T22:46:32.773Z,1.23
2022-09-15T22:49:00.347Z,1.17
2022-09-15T22:51:28.555Z,1.13
2022-09-15T22:53:57.275Z,1.77
2022-09-15T22:56:26.527Z,1.97
2022-09-15T22:58:54.571Z,1.70
2022-09-15T23:01:25.915Z,2.23
2022-09-15T23:03:58.909Z,1.70
2022-09-15T23:06:29.461Z,1.10
2022-09-15T23:08:59.482Z,1.23
2022-09-15T23:11:29.241Z,1.07
2022-09-15T23:13:56.728Z,0.90
2022-09-15T23:16:26.559Z,0.90
2022-09-15T23:18:54.624Z,1.10
2022-09-15T23:21:22.332Z,1.10
2022-09-15T23:23:49.437Z,1.27
2022-09-15T23:26:22.752Z,1.10
2022-09-15T23:28:50.566Z,1.60
2022-09-15T23:31:18.448Z,1.30
2022-09-15T23:33:46.337Z,1.27
2022-09-15T23:36:19.592Z,1.27
2022-09-15T23:38:48.051Z,1.20
2022-09-15T23:41:17.055Z,1.90
2022-09-15T23:43:44.896Z,1.27
2022-09-15T23:46:12.071Z,1.10
2022-09-15T23:48:39.151Z,1.87
2022-09-15T23:51:06.453Z,1.13
2022-09-15T23:53:34.243Z,1.37
2022-09-15T23:56:01.934Z,1.40
2022-09-15T23:58:28.990Z,1.30
